createdAt,value
2023-04-02T00:12:46.163Z,1557.2146
2023-04-02T00:27:48.433Z,1623.36365
2023-04-02T00:42:50.702Z,1209.11853
2023-04-02T00:57:52.810Z,562.80945
2023-04-02T01:12:54.915Z,270.0184
2023-04-02T01:27:57.129Z,294.95987
2023-04-02T01:42:59.279Z,708.12054
2023-04-02T01:58:01.366Z,391.47247
2023-04-02T02:13:03.416Z,95.42819
2023-04-02T02:28:05.578Z,20.60381
2023-04-02T02:43:07.766Z,2.16882
2023-04-02T02:58:09.968Z,0
2023-04-02T03:13:12.232Z,0
2023-04-02T03:28:14.331Z,0
2023-04-02T03:43:16.606Z,0
2023-04-02T04:13:19.793Z,0
2023-04-02T04:28:22.257Z,0
2023-04-02T04:43:24.308Z,0
2023-04-02T04:58:26.568Z,0
2023-04-02T05:13:28.621Z,0
2023-04-02T05:28:30.766Z,0
2023-04-02T05:43:32.878Z,0
2023-04-02T05:58:36.690Z,0
2023-04-02T06:13:39.036Z,0
2023-04-02T06:28:41.104Z,0
2023-04-02T06:43:43.204Z,0
2023-04-02T06:58:45.374Z,0
2023-04-02T07:13:47.518Z,0
2023-04-02T07:28:49.636Z,0
2023-04-02T07:43:51.735Z,0
2023-04-02T07:58:53.757Z,0
2023-04-02T08:13:55.881Z,0
2023-04-02T08:28:57.980Z,0
2023-04-02T08:44:00.159Z,0
2023-04-02T08:59:02.248Z,0
2023-04-02T09:14:04.387Z,0
2023-04-02T09:29:06.434Z,0
2023-04-02T09:44:08.570Z,0
2023-04-02T09:59:10.659Z,0
2023-04-02T10:14:12.780Z,0
2023-04-02T10:29:14.900Z,0
2023-04-02T10:44:20.587Z,0
2023-04-02T10:59:23.213Z,0
2023-04-02T11:14:25.381Z,0
2023-04-02T11:29:27.570Z,0
2023-04-02T11:44:29.903Z,0
2023-04-02T11:59:32.137Z,0
2023-04-02T12:14:34.325Z,0
2023-04-02T12:29:36.494Z,0
2023-04-02T12:44:38.751Z,0
2023-04-02T12:59:40.899Z,0
2023-04-02T13:14:43.270Z,8.67529
2023-04-02T13:29:45.456Z,52.05174
2023-04-02T13:44:47.623Z,138.80464
2023-04-02T13:59:49.786Z,249.4146
2023-04-02T14:14:52.016Z,605.1015
2023-04-02T14:29:54.250Z,2302.20508
2023-04-02T14:44:56.410Z,6298.26074
2023-04-02T14:59:58.578Z,24893.74414
2023-04-02T15:15:00.736Z,17311.54102
2023-04-02T15:30:02.972Z,16980.79688
2023-04-02T15:45:05.247Z,3045.02686
2023-04-02T16:00:07.513Z,6002.21631
2023-04-02T16:15:09.782Z,6323.20215
2023-04-02T16:30:12.042Z,9860.55176
2023-04-02T16:45:14.483Z,5694.24365
2023-04-02T17:00:16.754Z,6918.54395
2023-04-02T17:15:27.957Z,10371.30957
2023-04-02T17:30:31.170Z,10806.1582
2023-04-02T17:45:33.622Z,9702.22754
2023-04-02T18:00:36.140Z,10266.12109
2023-04-02T18:15:38.677Z,9641.50098
2023-04-02T18:30:41.185Z,9497.27344
2023-04-02T18:45:43.447Z,9398.59277
2023-04-02T19:00:45.670Z,6175.72217
2023-04-02T19:15:47.911Z,1733.97363
2023-04-02T19:30:50.268Z,1609.26636
2023-04-02T19:45:52.554Z,2200.27051
2023-04-02T20:00:54.850Z,4007.98413
2023-04-02T20:15:57.111Z,3119.85132
2023-04-02T20:30:59.554Z,1245.98853
2023-04-02T20:46:01.880Z,1498.65637
2023-04-02T21:01:04.152Z,3641.45312
2023-04-02T21:16:06.375Z,3451.68115
2023-04-02T21:31:08.817Z,3760.73828
2023-04-02T21:46:11.089Z,5668.21777
2023-04-02T22:01:23.954Z,3993.88672
2023-04-02T22:16:29.612Z,2936.58569
2023-04-02T22:31:32.071Z,2649.2168
2023-04-02T22:46:34.499Z,2127.61499
2023-04-02T23:01:37.008Z,1821.81091
2023-04-02T23:16:39.298Z,2101.58911
2023-04-02T23:31:41.568Z,1755.66187
2023-04-02T23:46:43.778Z,1485.64343
